sensor_id;sensor_type;location;lat;lon;timestamp;pressure;altitude;pressure_sealevel;temperature;humidity
17362;BME280;8798;51.938;4.348;2023-12-22T00:00:59;100098.88;;;9.81;85.25
17362;BME280;8798;51.938;4.348;2023-12-22T00:03:28;100106.09;;;9.80;85.02
17362;BME280;8798;51.938;4.348;2023-12-22T00:05:57;100107.94;;;9.80;85.35
17362;BME280;8798;51.938;4.348;2023-12-22T00:08:25;100112.47;;;9.79;85.01
17362;BME280;8798;51.938;4.348;2023-12-22T00:10:53;100115.16;;;9.79;85.18
17362;BME280;8798;51.938;4.348;2023-12-22T00:13:21;100109.94;;;9.78;85.02
17362;BME280;8798;51.938;4.348;2023-12-22T00:15:49;100131.88;;;9.81;84.65
17362;BME280;8798;51.938;4.348;2023-12-22T00:18:17;100157.38;;;9.85;84.69
17362;BME280;8798;51.938;4.348;2023-12-22T00:20:47;100171.28;;;9.89;84.84
17362;BME280;8798;51.938;4.348;2023-12-22T00:23:15;100190.59;;;9.93;84.65
17362;BME280;8798;51.938;4.348;2023-12-22T00:25:43;100203.69;;;9.96;84.59
17362;BME280;8798;51.938;4.348;2023-12-22T00:28:12;100201.19;;;9.94;84.97
17362;BME280;8798;51.938;4.348;2023-12-22T00:30:40;100212.56;;;9.96;84.81
17362;BME280;8798;51.938;4.348;2023-12-22T00:33:09;100215.25;;;9.96;84.40
17362;BME280;8798;51.938;4.348;2023-12-22T00:35:37;100225.00;;;9.97;84.59
17362;BME280;8798;51.938;4.348;2023-12-22T00:38:07;100235.53;;;9.99;84.46
17362;BME280;8798;51.938;4.348;2023-12-22T00:40:35;100224.16;;;9.97;84.53
17362;BME280;8798;51.938;4.348;2023-12-22T00:43:03;100233.88;;;9.98;84.72
17362;BME280;8798;51.938;4.348;2023-12-22T00:45:31;100239.09;;;9.99;84.54
17362;BME280;8798;51.938;4.348;2023-12-22T00:48:00;100229.53;;;9.97;84.35
17362;BME280;8798;51.938;4.348;2023-12-22T00:50:28;100224.47;;;9.94;84.23
17362;BME280;8798;51.938;4.348;2023-12-22T00:52:56;100216.75;;;9.90;83.99
17362;BME280;8798;51.938;4.348;2023-12-22T00:55:28;100208.03;;;9.88;83.99
17362;BME280;8798;51.938;4.348;2023-12-22T00:57:57;100208.34;;;9.85;83.68
17362;BME280;8798;51.938;4.348;2023-12-22T01:00:25;100217.91;;;9.88;84.00
17362;BME280;8798;51.938;4.348;2023-12-22T01:02:53;100217.09;;;9.87;83.74
17362;BME280;8798;51.938;4.348;2023-12-22T01:05:21;100215.38;;;9.86;84.02
17362;BME280;8798;51.938;4.348;2023-12-22T01:07:50;100228.50;;;9.89;83.85
17362;BME280;8798;51.938;4.348;2023-12-22T01:10:18;100252.16;;;9.94;83.99
17362;BME280;8798;51.938;4.348;2023-12-22T01:12:48;100263.53;;;9.96;83.50
17362;BME280;8798;51.938;4.348;2023-12-22T01:15:16;100267.94;;;9.97;83.82
17362;BME280;8798;51.938;4.348;2023-12-22T01:17:44;100272.47;;;9.97;83.49
17362;BME280;8798;51.938;4.348;2023-12-22T01:20:13;100275.13;;;9.97;83.40
17362;BME280;8798;51.938;4.348;2023-12-22T01:22:43;100262.03;;;9.94;83.51
17362;BME280;8798;51.938;4.348;2023-12-22T01:25:11;100257.00;;;9.90;83.19
17362;BME280;8798;51.938;4.348;2023-12-22T01:27:39;100243.91;;;9.87;83.25
17362;BME280;8798;51.938;4.348;2023-12-22T01:30:09;100229.97;;;9.84;83.25
17362;BME280;8798;51.938;4.348;2023-12-22T01:32:37;100231.13;;;9.81;83.10
17362;BME280;8798;51.938;4.348;2023-12-22T01:35:07;100225.94;;;9.80;82.96
17362;BME280;8798;51.938;4.348;2023-12-22T01:37:37;100223.41;;;9.78;82.71
17362;BME280;8798;51.938;4.348;2023-12-22T01:40:07;100208.50;;;9.76;83.23
17362;BME280;8798;51.938;4.348;2023-12-22T01:42:35;100220.06;;;9.76;82.90
17362;BME280;8798;51.938;4.348;2023-12-22T01:45:04;100245.56;;;9.80;83.10
17362;BME280;8798;51.938;4.348;2023-12-22T01:47:34;100249.91;;;9.81;82.63
17362;BME280;8798;51.938;4.348;2023-12-22T01:50:04;100209.81;;;9.72;82.96
17362;BME280;8798;51.938;4.348;2023-12-22T01:52:32;100183.97;;;9.62;82.69
17362;BME280;8798;51.938;4.348;2023-12-22T01:55:01;100166.53;;;9.58;82.57
17362;BME280;8798;51.938;4.348;2023-12-22T01:57:29;100170.03;;;9.59;82.96
17362;BME280;8798;51.938;4.348;2023-12-22T01:59:58;100189.50;;;9.61;82.70
17362;BME280;8798;51.938;4.348;2023-12-22T02:02:26;100206.94;;;9.65;82.80
17362;BME280;8798;51.938;4.348;2023-12-22T02:04:56;100223.53;;;9.68;83.01
17362;BME280;8798;51.938;4.348;2023-12-22T02:07:25;100243.84;;;9.71;82.96
17362;BME280;8798;51.938;4.348;2023-12-22T02:09:53;100244.66;;;9.72;82.90
17362;BME280;8798;51.938;4.348;2023-12-22T02:12:22;100258.94;;;9.72;82.53
17362;BME280;8798;51.938;4.348;2023-12-22T02:14:50;100268.50;;;9.75;82.67
17362;BME280;8798;51.938;4.348;2023-12-22T02:17:23;100294.16;;;9.77;82.71
17362;BME280;8798;51.938;4.348;2023-12-22T02:19:53;100301.88;;;9.80;83.20
17362;BME280;8798;51.938;4.348;2023-12-22T02:22:24;100324.72;;;9.84;82.71
17362;BME280;8798;51.938;4.348;2023-12-22T02:24:53;100342.16;;;9.88;83.15
17362;BME280;8798;51.938;4.348;2023-12-22T02:27:34;100366.84;;;9.92;82.59
17362;BME280;8798;51.938;4.348;2023-12-22T02:30:08;100381.59;;;9.96;82.69
17362;BME280;8798;51.938;4.348;2023-12-22T02:32:42;100393.84;;;9.99;82.65
17362;BME280;8798;51.938;4.348;2023-12-22T02:35:13;100405.13;;;10.02;82.53
17362;BME280;8798;51.938;4.348;2023-12-22T02:37:45;100417.53;;;10.03;82.58
17362;BME280;8798;51.938;4.348;2023-12-22T02:40:16;100422.75;;;10.05;82.93
17362;BME280;8798;51.938;4.348;2023-12-22T02:42:46;100420.06;;;10.05;83.09
17362;BME280;8798;51.938;4.348;2023-12-22T02:45:15;100432.47;;;10.06;82.71
17362;BME280;8798;51.938;4.348;2023-12-22T02:47:44;100431.47;;;10.07;83.01
17362;BME280;8798;51.938;4.348;2023-12-22T02:50:13;100445.59;;;10.09;82.81
17362;BME280;8798;51.938;4.348;2023-12-22T02:52:42;100451.78;;;10.09;82.73
17362;BME280;8798;51.938;4.348;2023-12-22T02:55:10;100460.53;;;10.11;82.70
17362;BME280;8798;51.938;4.348;2023-12-22T02:57:40;100462.19;;;10.12;82.89
17362;BME280;8798;51.938;4.348;2023-12-22T03:00:09;100472.59;;;10.16;82.66
17362;BME280;8798;51.938;4.348;2023-12-22T03:02:37;100489.25;;;10.19;82.26
17362;BME280;8798;51.938;4.348;2023-12-22T03:05:06;100503.38;;;10.21;82.28
17362;BME280;8798;51.938;4.348;2023-12-22T03:07:34;100516.47;;;10.24;82.25
17362;BME280;8798;51.938;4.348;2023-12-22T03:10:03;100513.59;;;10.26;82.35
17362;BME280;8798;51.938;4.348;2023-12-22T03:12:31;100522.53;;;10.26;82.22
17362;BME280;8798;51.938;4.348;2023-12-22T03:15:00;100524.19;;;10.27;82.63
17362;BME280;8798;51.938;4.348;2023-12-22T03:17:29;100523.34;;;10.27;82.56
17362;BME280;8798;51.938;4.348;2023-12-22T03:19:57;100523.34;;;10.27;82.11
17362;BME280;8798;51.938;4.348;2023-12-22T03:22:25;100511.94;;;10.25;81.89
17362;BME280;8798;51.938;4.348;2023-12-22T03:24:54;100513.78;;;10.24;81.97
17362;BME280;8798;51.938;4.348;2023-12-22T03:27:22;100507.72;;;10.22;81.76
17362;BME280;8798;51.938;4.348;2023-12-22T03:29:50;100513.94;;;10.23;82.16
17362;BME280;8798;51.938;4.348;2023-12-22T03:32:20;100513.94;;;10.23;82.20
17362;BME280;8798;51.938;4.348;2023-12-22T03:34:49;100515.63;;;10.24;81.89
17362;BME280;8798;51.938;4.348;2023-12-22T03:37:17;100527.91;;;10.26;81.65
17362;BME280;8798;51.938;4.348;2023-12-22T03:39:45;100521.50;;;10.27;81.59
17362;BME280;8798;51.938;4.348;2023-12-22T03:42:14;100531.28;;;10.28;81.95
17362;BME280;8798;51.938;4.348;2023-12-22T03:44:42;100545.38;;;10.30;81.82
17362;BME280;8798;51.938;4.348;2023-12-22T03:47:10;100546.91;;;10.33;81.70
17362;BME280;8798;51.938;4.348;2023-12-22T03:49:39;100553.81;;;10.36;81.35
17362;BME280;8798;51.938;4.348;2023-12-22T03:52:08;100554.81;;;10.35;81.24
17362;BME280;8798;51.938;4.348;2023-12-22T03:54:37;100569.63;;;10.39;81.52
17362;BME280;8798;51.938;4.348;2023-12-22T03:57:05;100574.66;;;10.42;81.67
17362;BME280;8798;51.938;4.348;2023-12-22T03:59:33;100572.97;;;10.41;81.70
17362;BME280;8798;51.938;4.348;2023-12-22T04:02:01;100580.88;;;10.42;81.15
17362;BME280;8798;51.938;4.348;2023-12-22T04:04:29;100591.47;;;10.44;81.33
17362;BME280;8798;51.938;4.348;2023-12-22T04:06:59;100585.22;;;10.43;81.39
17362;BME280;8798;51.938;4.348;2023-12-22T04:09:27;100585.22;;;10.43;81.94
17362;BME280;8798;51.938;4.348;2023-12-22T04:11:55;100590.59;;;10.43;81.73
17362;BME280;8798;51.938;4.348;2023-12-22T04:14:23;100601.06;;;10.46;82.10
17362;BME280;8798;51.938;4.348;2023-12-22T04:16:51;100603.56;;;10.48;81.83
17362;BME280;8798;51.938;4.348;2023-12-22T04:19:20;100603.41;;;10.49;81.53
17362;BME280;8798;51.938;4.348;2023-12-22T04:21:48;100608.78;;;10.49;81.63
17362;BME280;8798;51.938;4.348;2023-12-22T04:24:18;100608.63;;;10.51;81.69
17362;BME280;8798;51.938;4.348;2023-12-22T04:26:46;100628.09;;;10.53;81.82
17362;BME280;8798;51.938;4.348;2023-12-22T04:29:14;100629.81;;;10.54;81.95
17362;BME280;8798;51.938;4.348;2023-12-22T04:31:42;100633.00;;;10.58;81.85
17362;BME280;8798;51.938;4.348;2023-12-22T04:34:13;100644.59;;;10.58;81.66
17362;BME280;8798;51.938;4.348;2023-12-22T04:36:42;100647.13;;;10.60;81.41
17362;BME280;8798;51.938;4.348;2023-12-22T04:39:10;100652.34;;;10.61;81.65
17362;BME280;8798;51.938;4.348;2023-12-22T04:41:40;100655.88;;;10.62;81.33
17362;BME280;8798;51.938;4.348;2023-12-22T04:44:08;100659.41;;;10.62;81.36
17362;BME280;8798;51.938;4.348;2023-12-22T04:46:36;100645.13;;;10.62;81.46
17362;BME280;8798;51.938;4.348;2023-12-22T04:49:04;100646.81;;;10.63;82.18
17362;BME280;8798;51.938;4.348;2023-12-22T04:51:33;100655.72;;;10.63;81.63
17362;BME280;8798;51.938;4.348;2023-12-22T04:54:01;100655.56;;;10.65;81.92
17362;BME280;8798;51.938;4.348;2023-12-22T04:56:29;100661.63;;;10.67;82.18
17362;BME280;8798;51.938;4.348;2023-12-22T04:58:58;100653.03;;;10.63;81.69
17362;BME280;8798;51.938;4.348;2023-12-22T05:01:27;100653.88;;;10.64;82.15
17362;BME280;8798;51.938;4.348;2023-12-22T05:03:55;100652.88;;;10.65;81.41
17362;BME280;8798;51.938;4.348;2023-12-22T05:06:23;100658.25;;;10.65;81.94
17362;BME280;8798;51.938;4.348;2023-12-22T05:08:51;100650.19;;;10.65;81.95
17362;BME280;8798;51.938;4.348;2023-12-22T05:11:19;100653.03;;;10.63;82.17
17362;BME280;8798;51.938;4.348;2023-12-22T05:13:48;100640.59;;;10.62;81.88
17362;BME280;8798;51.938;4.348;2023-12-22T05:16:17;100636.25;;;10.61;82.00
17362;BME280;8798;51.938;4.348;2023-12-22T05:18:46;100636.06;;;10.63;81.88
17362;BME280;8798;51.938;4.348;2023-12-22T05:21:14;100639.75;;;10.62;81.77
17362;BME280;8798;51.938;4.348;2023-12-22T05:23:42;100645.97;;;10.62;81.67
17362;BME280;8798;51.938;4.348;2023-12-22T05:26:16;100639.63;;;10.63;81.50
17362;BME280;8798;51.938;4.348;2023-12-22T05:28:44;100638.59;;;10.64;82.26
17362;BME280;8798;51.938;4.348;2023-12-22T05:31:12;100639.44;;;10.65;81.72
17362;BME280;8798;51.938;4.348;2023-12-22T05:33:42;100641.97;;;10.66;82.25
17362;BME280;8798;51.938;4.348;2023-12-22T05:36:10;100660.59;;;10.68;81.90
17362;BME280;8798;51.938;4.348;2023-12-22T05:38:59;100654.25;;;10.69;82.32
17362;BME280;8798;51.938;4.348;2023-12-22T05:41:27;100656.75;;;10.70;82.36
17362;BME280;8798;51.938;4.348;2023-12-22T05:43:55;100660.31;;;10.71;82.52
17362;BME280;8798;51.938;4.348;2023-12-22T05:46:23;100663.66;;;10.73;82.34
17362;BME280;8798;51.938;4.348;2023-12-22T05:48:53;100661.16;;;10.71;82.04
17362;BME280;8798;51.938;4.348;2023-12-22T05:51:24;100667.22;;;10.73;82.04
17362;BME280;8798;51.938;4.348;2023-12-22T05:53:52;100660.00;;;10.74;82.28
17362;BME280;8798;51.938;4.348;2023-12-22T05:56:21;100677.63;;;10.76;81.77
17362;BME280;8798;51.938;4.348;2023-12-22T05:58:50;100677.63;;;10.76;82.08
17362;BME280;8798;51.938;4.348;2023-12-22T06:01:18;100670.41;;;10.77;81.94
17362;BME280;8798;51.938;4.348;2023-12-22T06:03:47;100678.34;;;10.79;81.55
17362;BME280;8798;51.938;4.348;2023-12-22T06:06:16;100681.84;;;10.79;82.19
17362;BME280;8798;51.938;4.348;2023-12-22T06:08:45;100689.59;;;10.82;82.43
17362;BME280;8798;51.938;4.348;2023-12-22T06:11:13;100685.06;;;10.83;81.67
17362;BME280;8798;51.938;4.348;2023-12-22T06:13:42;100692.97;;;10.84;81.71
17362;BME280;8798;51.938;4.348;2023-12-22T06:16:13;100697.34;;;10.85;81.65
17362;BME280;8798;51.938;4.348;2023-12-22T06:18:42;100697.34;;;10.85;82.07
17362;BME280;8798;51.938;4.348;2023-12-22T06:21:10;100691.81;;;10.87;81.95
17362;BME280;8798;51.938;4.348;2023-12-22T06:23:40;100702.41;;;10.88;82.03
17362;BME280;8798;51.938;4.348;2023-12-22T06:26:09;100706.78;;;10.89;82.19
17362;BME280;8798;51.938;4.348;2023-12-22T06:28:38;100702.25;;;10.90;82.24
17362;BME280;8798;51.938;4.348;2023-12-22T06:31:07;100710.16;;;10.91;82.19
17362;BME280;8798;51.938;4.348;2023-12-22T06:33:37;100696.88;;;10.90;81.63
17362;BME280;8798;51.938;4.348;2023-12-22T06:36:06;100698.56;;;10.91;82.13
17362;BME280;8798;51.938;4.348;2023-12-22T06:38:45;100703.06;;;10.90;81.66
17362;BME280;8798;51.938;4.348;2023-12-22T06:41:19;100694.19;;;10.90;81.94
17362;BME280;8798;51.938;4.348;2023-12-22T06:43:53;100694.19;;;10.90;81.93
17362;BME280;8798;51.938;4.348;2023-12-22T06:46:23;100698.56;;;10.91;81.49
17362;BME280;8798;51.938;4.348;2023-12-22T06:48:53;100697.56;;;10.92;81.85
17362;BME280;8798;51.938;4.348;2023-12-22T06:51:23;100686.81;;;10.92;81.93
17362;BME280;8798;51.938;4.348;2023-12-22T06:53:53;100702.78;;;10.93;81.86
17362;BME280;8798;51.938;4.348;2023-12-22T06:56:23;100693.88;;;10.93;81.58
17362;BME280;8798;51.938;4.348;2023-12-22T06:58:54;100698.25;;;10.94;81.67
17362;BME280;8798;51.938;4.348;2023-12-22T07:01:27;100689.16;;;10.95;81.42
17362;BME280;8798;51.938;4.348;2023-12-22T07:03:56;100697.22;;;10.95;81.61
17362;BME280;8798;51.938;4.348;2023-12-22T07:06:25;100699.78;;;10.96;81.53
17362;BME280;8798;51.938;4.348;2023-12-22T07:09:31;100705.00;;;10.98;81.95
17362;BME280;8798;51.938;4.348;2023-12-22T07:12:00;100697.09;;;10.96;81.90
17362;BME280;8798;51.938;4.348;2023-12-22T07:14:30;100692.53;;;10.97;81.90
17362;BME280;8798;51.938;4.348;2023-12-22T07:17:02;100698.75;;;10.97;81.36
17362;BME280;8798;51.938;4.348;2023-12-22T07:19:30;100683.66;;;10.96;81.80
17362;BME280;8798;51.938;4.348;2023-12-22T07:21:58;100676.75;;;10.94;81.20
17362;BME280;8798;51.938;4.348;2023-12-22T07:24:26;100680.28;;;10.94;81.73
17362;BME280;8798;51.938;4.348;2023-12-22T07:26:56;100670.53;;;10.93;81.50
17362;BME280;8798;51.938;4.348;2023-12-22T07:29:25;100676.59;;;10.95;81.73
17362;BME280;8798;51.938;4.348;2023-12-22T07:31:53;100672.91;;;10.96;81.45
17362;BME280;8798;51.938;4.348;2023-12-22T07:34:21;100687.84;;;10.99;81.52
17362;BME280;8798;51.938;4.348;2023-12-22T07:36:49;100684.16;;;11.00;81.18
17362;BME280;8798;51.938;4.348;2023-12-22T07:39:32;100698.28;;;11.02;81.85
17362;BME280;8798;51.938;4.348;2023-12-22T07:42:03;100695.59;;;11.02;81.62
17362;BME280;8798;51.938;4.348;2023-12-22T07:44:34;100700.81;;;11.04;81.63
17362;BME280;8798;51.938;4.348;2023-12-22T07:47:07;100701.66;;;11.04;81.52
17362;BME280;8798;51.938;4.348;2023-12-22T07:49:36;100692.59;;;11.05;81.93
17362;BME280;8798;51.938;4.348;2023-12-22T07:52:05;100696.28;;;11.04;81.84
17362;BME280;8798;51.938;4.348;2023-12-22T07:54:33;100690.06;;;11.04;81.69
17362;BME280;8798;51.938;4.348;2023-12-22T07:57:03;100687.38;;;11.04;81.68
17362;BME280;8798;51.938;4.348;2023-12-22T07:59:31;100684.00;;;11.02;81.63
17362;BME280;8798;51.938;4.348;2023-12-22T08:01:59;100672.44;;;11.01;81.89
17362;BME280;8798;51.938;4.348;2023-12-22T08:04:30;100679.47;;;11.02;81.67
17362;BME280;8798;51.938;4.348;2023-12-22T08:06:59;100684.69;;;11.04;81.77
17362;BME280;8798;51.938;4.348;2023-12-22T08:09:27;100682.84;;;11.04;81.56
17362;BME280;8798;51.938;4.348;2023-12-22T08:11:55;100681.84;;;11.05;81.81
17362;BME280;8798;51.938;4.348;2023-12-22T08:14:25;100690.59;;;11.07;81.80
17362;BME280;8798;51.938;4.348;2023-12-22T08:16:53;100708.09;;;11.11;81.61
17362;BME280;8798;51.938;4.348;2023-12-22T08:19:22;100707.09;;;11.12;81.80
17362;BME280;8798;51.938;4.348;2023-12-22T08:21:53;100721.91;;;11.16;81.45
17362;BME280;8798;51.938;4.348;2023-12-22T08:24:22;100725.28;;;11.18;81.55
17362;BME280;8798;51.938;4.348;2023-12-22T08:26:50;100735.84;;;11.20;81.63
17362;BME280;8798;51.938;4.348;2023-12-22T08:29:19;100736.72;;;11.21;81.72
17362;BME280;8798;51.938;4.348;2023-12-22T08:31:48;100727.78;;;11.20;81.54
17362;BME280;8798;51.938;4.348;2023-12-22T08:34:20;100714.53;;;11.18;81.99
17362;BME280;8798;51.938;4.348;2023-12-22T08:36:48;100707.44;;;11.17;81.79
17362;BME280;8798;51.938;4.348;2023-12-22T08:39:16;100703.22;;;11.15;81.99
17362;BME280;8798;51.938;4.348;2023-12-22T08:41:45;100682.88;;;11.12;82.13
17362;BME280;8798;51.938;4.348;2023-12-22T08:44:13;100684.91;;;11.10;81.80
17362;BME280;8798;51.938;4.348;2023-12-22T08:46:42;100682.88;;;11.12;82.19
17362;BME280;8798;51.938;4.348;2023-12-22T08:49:12;100686.25;;;11.14;82.50
17362;BME280;8798;51.938;4.348;2023-12-22T08:51:40;100701.22;;;11.17;81.76
17362;BME280;8798;51.938;4.348;2023-12-22T08:54:09;100711.50;;;11.22;82.14
17362;BME280;8798;51.938;4.348;2023-12-22T08:56:37;100728.19;;;11.25;81.87
17362;BME280;8798;51.938;4.348;2023-12-22T08:59:05;100746.50;;;11.30;82.55
17362;BME280;8798;51.938;4.348;2023-12-22T09:01:35;100758.78;;;11.32;82.48
17362;BME280;8798;51.938;4.348;2023-12-22T09:04:04;100761.19;;;11.35;81.92
17362;BME280;8798;51.938;4.348;2023-12-22T09:06:36;100771.75;;;11.37;82.13
17362;BME280;8798;51.938;4.348;2023-12-22T09:09:05;100787.44;;;11.41;82.25
17362;BME280;8798;51.938;4.348;2023-12-22T09:11:34;100797.03;;;11.44;82.04
17362;BME280;8798;51.938;4.348;2023-12-22T09:14:04;100797.72;;;11.46;82.65
17362;BME280;8798;51.938;4.348;2023-12-22T09:16:35;100802.78;;;11.49;82.70
17362;BME280;8798;51.938;4.348;2023-12-22T09:19:03;100819.44;;;11.53;81.88
17362;BME280;8798;51.938;4.348;2023-12-22T09:21:32;100827.34;;;11.54;82.54
17362;BME280;8798;51.938;4.348;2023-12-22T09:24:02;100828.88;;;11.57;82.20
17362;BME280;8798;51.938;4.348;2023-12-22T09:26:31;100833.97;;;11.60;82.33
17362;BME280;8798;51.938;4.348;2023-12-22T09:29:00;100843.56;;;11.62;82.61
17362;BME280;8798;51.938;4.348;2023-12-22T09:31:28;100851.31;;;11.66;82.09
17362;BME280;8798;51.938;4.348;2023-12-22T09:33:57;100854.69;;;11.68;82.78
17362;BME280;8798;51.938;4.348;2023-12-22T09:36:25;100858.91;;;11.70;82.12
17362;BME280;8798;51.938;4.348;2023-12-22T09:38:55;100860.75;;;11.70;82.13
17362;BME280;8798;51.938;4.348;2023-12-22T09:41:24;100856.03;;;11.72;82.44
17362;BME280;8798;51.938;4.348;2023-12-22T09:43:56;100863.81;;;11.75;82.41
17362;BME280;8798;51.938;4.348;2023-12-22T09:46:26;100869.03;;;11.76;82.62
17362;BME280;8798;51.938;4.348;2023-12-22T09:48:55;100868.88;;;11.78;82.22
17362;BME280;8798;51.938;4.348;2023-12-22T09:51:26;100879.31;;;11.81;82.47
17362;BME280;8798;51.938;4.348;2023-12-22T09:53:56;100885.25;;;11.84;82.58
17362;BME280;8798;51.938;4.348;2023-12-22T09:56:31;100897.69;;;11.86;82.44
17362;BME280;8798;51.938;4.348;2023-12-22T09:59:00;100890.31;;;11.88;82.62
17362;BME280;8798;51.938;4.348;2023-12-22T10:01:29;100902.63;;;11.90;82.42
17362;BME280;8798;51.938;4.348;2023-12-22T10:03:58;100908.69;;;11.92;82.66
17362;BME280;8798;51.938;4.348;2023-12-22T10:06:27;100913.75;;;11.95;82.36
17362;BME280;8798;51.938;4.348;2023-12-22T10:08:56;100910.91;;;11.97;82.55
17362;BME280;8798;51.938;4.348;2023-12-22T10:11:25;100917.84;;;11.99;82.83
17362;BME280;8798;51.938;4.348;2023-12-22T10:13:57;100918.50;;;12.01;82.55
17362;BME280;8798;51.938;4.348;2023-12-22T10:16:28;100919.34;;;12.02;83.14
17362;BME280;8798;51.938;4.348;2023-12-22T10:18:58;100926.28;;;12.04;82.37
17362;BME280;8798;51.938;4.348;2023-12-22T10:21:27;100934.84;;;12.08;82.76
17362;BME280;8798;51.938;4.348;2023-12-22T10:23:59;100933.88;;;12.09;82.64
17362;BME280;8798;51.938;4.348;2023-12-22T10:26:28;100934.53;;;12.11;82.77
17362;BME280;8798;51.938;4.348;2023-12-22T10:28:58;100943.31;;;12.13;82.73
17362;BME280;8798;51.938;4.348;2023-12-22T10:31:26;100940.47;;;12.15;82.31
17362;BME280;8798;51.938;4.348;2023-12-22T10:33:55;100948.38;;;12.16;82.68
17362;BME280;8798;51.938;4.348;2023-12-22T10:36:23;100941.16;;;12.17;82.34
17362;BME280;8798;51.938;4.348;2023-12-22T10:38:52;100933.06;;;12.17;82.55
17362;BME280;8798;51.938;4.348;2023-12-22T10:41:21;100931.22;;;12.17;82.29
17362;BME280;8798;51.938;4.348;2023-12-22T10:43:50;100926.66;;;12.18;82.66
17362;BME280;8798;51.938;4.348;2023-12-22T10:46:21;100922.97;;;12.19;82.50
17362;BME280;8798;51.938;4.348;2023-12-22T10:48:52;100918.44;;;12.19;82.66
17362;BME280;8798;51.938;4.348;2023-12-22T10:51:21;100926.34;;;12.21;82.12
17362;BME280;8798;51.938;4.348;2023-12-22T10:53:49;100926.34;;;12.21;82.19
17362;BME280;8798;51.938;4.348;2023-12-22T10:56:18;100914.59;;;12.22;82.42
17362;BME280;8798;51.938;4.348;2023-12-22T10:58:48;100920.66;;;12.24;82.00
17362;BME280;8798;51.938;4.348;2023-12-22T11:01:16;100923.16;;;12.25;82.26
17362;BME280;8798;51.938;4.348;2023-12-22T11:03:48;100924.00;;;12.26;82.53
17362;BME280;8798;51.938;4.348;2023-12-22T11:06:19;100930.09;;;12.28;82.43
17362;BME280;8798;51.938;4.348;2023-12-22T11:08:50;100903.47;;;12.25;82.22
17362;BME280;8798;51.938;4.348;2023-12-22T11:11:27;100900.78;;;12.25;81.87
17362;BME280;8798;51.938;4.348;2023-12-22T11:13:57;100897.25;;;12.24;82.50
17362;BME280;8798;51.938;4.348;2023-12-22T11:16:27;100899.75;;;12.26;81.81
17362;BME280;8798;51.938;4.348;2023-12-22T11:18:58;100899.75;;;12.26;82.48
17362;BME280;8798;51.938;4.348;2023-12-22T11:21:27;100888.16;;;12.25;82.26
17362;BME280;8798;51.938;4.348;2023-12-22T11:23:56;100854.78;;;12.18;81.86
17362;BME280;8798;51.938;4.348;2023-12-22T11:26:25;100838.97;;;12.15;81.79
17362;BME280;8798;51.938;4.348;2023-12-22T11:28:54;100825.66;;;12.14;81.65
17362;BME280;8798;51.938;4.348;2023-12-22T11:31:23;100827.34;;;12.15;81.82
17362;BME280;8798;51.938;4.348;2023-12-22T11:33:54;100831.56;;;12.17;81.90
17362;BME280;8798;51.938;4.348;2023-12-22T11:36:38;100839.31;;;12.20;82.00
17362;BME280;8798;51.938;4.348;2023-12-22T11:39:06;100834.78;;;12.21;81.72
17362;BME280;8798;51.938;4.348;2023-12-22T11:41:36;100838.31;;;12.21;81.80
17362;BME280;8798;51.938;4.348;2023-12-22T11:44:05;100830.22;;;12.21;81.90
17362;BME280;8798;51.938;4.348;2023-12-22T11:46:34;100827.53;;;12.21;82.32
17362;BME280;8798;51.938;4.348;2023-12-22T11:49:04;100828.56;;;12.20;82.17
17362;BME280;8798;51.938;4.348;2023-12-22T11:51:33;100827.38;;;12.23;82.15
17362;BME280;8798;51.938;4.348;2023-12-22T11:54:04;100817.78;;;12.20;81.73
17362;BME280;8798;51.938;4.348;2023-12-22T11:56:52;100802.78;;;12.18;81.77
17362;BME280;8798;51.938;4.348;2023-12-22T11:59:20;100800.94;;;12.18;81.96
17362;BME280;8798;51.938;4.348;2023-12-22T12:01:54;100803.47;;;12.20;81.83
17362;BME280;8798;51.938;4.348;2023-12-22T12:04:22;100799.94;;;12.19;81.65
17362;BME280;8798;51.938;4.348;2023-12-22T12:06:51;100796.22;;;12.20;81.96
17362;BME280;8798;51.938;4.348;2023-12-22T12:09:46;100790.84;;;12.20;81.55
17362;BME280;8798;51.938;4.348;2023-12-22T12:12:15;100786.31;;;12.21;81.95
17362;BME280;8798;51.938;4.348;2023-12-22T12:18:14;100787.13;;;12.21;81.40
17362;BME280;8798;51.938;4.348;2023-12-22T12:20:45;100782.63;;;12.22;81.35
17362;BME280;8798;51.938;4.348;2023-12-22T12:23:14;100783.31;;;12.24;81.27
17362;BME280;8798;51.938;4.348;2023-12-22T12:25:47;100793.06;;;12.25;81.41
17362;BME280;8798;51.938;4.348;2023-12-22T12:28:16;100793.75;;;12.27;81.85
17362;BME280;8798;51.938;4.348;2023-12-22T12:30:44;100791.88;;;12.27;81.46
17362;BME280;8798;51.938;4.348;2023-12-22T12:33:15;100776.75;;;12.26;81.58
17362;BME280;8798;51.938;4.348;2023-12-22T12:35:46;100773.19;;;12.26;81.34
17362;BME280;8798;51.938;4.348;2023-12-22T12:38:21;100782.78;;;12.29;81.36
17362;BME280;8798;51.938;4.348;2023-12-22T12:40:52;100765.97;;;12.26;81.29
17362;BME280;8798;51.938;4.348;2023-12-22T12:43:21;100746.59;;;12.23;81.81
17362;BME280;8798;51.938;4.348;2023-12-22T12:45:51;100735.13;;;12.21;81.67
17362;BME280;8798;51.938;4.348;2023-12-22T12:48:21;100729.94;;;12.19;81.45
17362;BME280;8798;51.938;4.348;2023-12-22T12:50:50;100730.56;;;12.21;81.24
17362;BME280;8798;51.938;4.348;2023-12-22T12:53:18;100730.56;;;12.21;81.27
17362;BME280;8798;51.938;4.348;2023-12-22T12:55:48;100734.13;;;12.22;81.54
17362;BME280;8798;51.938;4.348;2023-12-22T12:58:18;100734.81;;;12.24;81.45
17362;BME280;8798;51.938;4.348;2023-12-22T13:00:47;100746.94;;;12.28;81.68
17362;BME280;8798;51.938;4.348;2023-12-22T13:03:15;100744.25;;;12.28;80.86
17362;BME280;8798;51.938;4.348;2023-12-22T13:05:43;100743.25;;;12.29;81.33
17362;BME280;8798;51.938;4.348;2023-12-22T13:08:13;100741.38;;;12.30;81.06
17362;BME280;8798;51.938;4.348;2023-12-22T13:10:41;100743.25;;;12.29;81.49
17362;BME280;8798;51.938;4.348;2023-12-22T13:13:10;100744.75;;;12.32;81.22
17362;BME280;8798;51.938;4.348;2023-12-22T13:15:41;100749.97;;;12.33;81.45
17362;BME280;8798;51.938;4.348;2023-12-22T13:18:09;100747.97;;;12.35;81.21